createdAt,value
2018-04-17T00:00:11.703Z,21.83
2018-04-17T00:00:44.578Z,21.82
2018-04-17T00:01:16.649Z,21.82
2018-04-17T00:01:48.718Z,21.83
2018-04-17T00:02:20.781Z,21.82
2018-04-17T00:02:52.879Z,21.80
2018-04-17T00:03:24.961Z,21.80
2018-04-17T00:03:57.767Z,21.82
2018-04-17T00:04:29.840Z,21.81
2018-04-17T00:05:01.910Z,21.81
2018-04-17T00:05:34.729Z,21.82
2018-04-17T00:06:06.794Z,21.81
2018-04-17T00:06:38.871Z,21.80
2018-04-17T00:07:10.923Z,21.82
2018-04-17T00:07:42.986Z,21.81
2018-04-17T00:08:15.825Z,21.81
2018-04-17T00:08:47.884Z,21.81
2018-04-17T00:09:19.947Z,21.80
2018-04-17T00:09:52.004Z,21.80
2018-04-17T00:10:24.075Z,21.80
2018-04-17T00:10:56.923Z,21.79
2018-04-17T00:11:28.974Z,21.79
2018-04-17T00:12:01.803Z,21.79
2018-04-17T00:12:33.873Z,21.78
2018-04-17T00:13:05.946Z,21.79
2018-04-17T00:13:38.067Z,21.78
2018-04-17T00:14:10.131Z,21.79
2018-04-17T00:14:42.183Z,21.79
2018-04-17T00:15:14.252Z,21.79
2018-04-17T00:15:46.317Z,21.80
2018-04-17T00:16:18.415Z,21.81
2018-04-17T00:16:50.481Z,21.81
2018-04-17T00:17:22.547Z,21.81
2018-04-17T00:17:54.611Z,21.80
2018-04-17T00:18:26.692Z,21.79
2018-04-17T00:18:59.514Z,21.80
2018-04-17T00:19:31.573Z,21.80
2018-04-17T00:20:03.664Z,21.79
2018-04-17T00:20:36.477Z,21.78
2018-04-17T00:21:08.542Z,21.79
2018-04-17T00:21:40.619Z,21.80
2018-04-17T00:22:12.713Z,21.80
2018-04-17T00:22:44.797Z,21.80
2018-04-17T00:23:16.873Z,21.79
2018-04-17T00:23:48.956Z,21.79
2018-04-17T00:24:21.018Z,21.80
2018-04-17T00:24:53.108Z,21.79
2018-04-17T00:25:25.252Z,21.80
2018-04-17T00:25:57.504Z,21.80
2018-04-17T00:26:29.616Z,21.80
2018-04-17T00:27:01.662Z,21.79
2018-04-17T00:27:34.608Z,21.79
2018-04-17T00:28:06.670Z,21.80
2018-04-17T00:28:38.731Z,21.80
2018-04-17T00:29:11.579Z,21.81
2018-04-17T00:29:43.636Z,21.81
2018-04-17T00:30:15.785Z,21.82
2018-04-17T00:30:47.833Z,21.81
2018-04-17T00:31:19.979Z,21.79
2018-04-17T00:31:52.056Z,21.79
2018-04-17T00:32:24.156Z,21.79
2018-04-17T00:32:56.943Z,21.80
2018-04-17T00:33:29.026Z,21.80
2018-04-17T00:34:01.119Z,21.79
2018-04-17T00:34:33.933Z,21.78
2018-04-17T00:35:05.996Z,21.79
2018-04-17T00:35:38.055Z,21.79
2018-04-17T00:36:10.116Z,21.79
2018-04-17T00:36:42.951Z,21.80
2018-04-17T00:37:15.010Z,21.79
2018-04-17T00:37:47.084Z,21.79
2018-04-17T00:38:19.172Z,21.78
2018-04-17T00:38:51.234Z,21.78
2018-04-17T00:39:23.299Z,21.78
2018-04-17T00:39:55.384Z,21.77
2018-04-17T00:40:27.435Z,21.77
2018-04-17T00:40:59.531Z,21.77
2018-04-17T00:41:31.591Z,21.77
2018-04-17T00:42:03.662Z,21.77
2018-04-17T00:42:35.838Z,21.78
2018-04-17T00:43:07.902Z,21.78
2018-04-17T00:43:39.971Z,21.79
2018-04-17T00:44:12.813Z,21.79
2018-04-17T00:44:44.883Z,21.79
2018-04-17T00:45:16.970Z,21.79
2018-04-17T00:45:49.031Z,21.79
2018-04-17T00:46:21.104Z,21.79
2018-04-17T00:46:53.175Z,21.78
2018-04-17T00:47:25.251Z,21.79
2018-04-17T00:47:58.086Z,21.79
2018-04-17T00:48:30.149Z,21.80
2018-04-17T00:49:02.210Z,21.80
2018-04-17T00:49:34.276Z,21.80
2018-04-17T00:50:07.102Z,21.79
2018-04-17T00:50:39.169Z,21.79
2018-04-17T00:51:11.236Z,21.79
2018-04-17T00:51:43.294Z,21.78
2018-04-17T00:52:15.360Z,21.78
2018-04-17T00:52:48.185Z,21.79
2018-04-17T00:53:20.255Z,21.78
2018-04-17T00:53:52.334Z,21.77
2018-04-17T00:54:25.191Z,21.79
2018-04-17T00:54:57.210Z,21.78
2018-04-17T00:55:29.298Z,21.78
2018-04-17T00:56:01.442Z,21.79
2018-04-17T00:56:33.486Z,21.80
2018-04-17T00:57:05.613Z,21.79
2018-04-17T00:57:37.682Z,21.80
2018-04-17T00:58:09.736Z,21.78
2018-04-17T00:58:41.793Z,21.78
2018-04-17T00:59:13.878Z,21.78
2018-04-17T00:59:46.701Z,21.78
2018-04-17T01:00:18.788Z,21.78
2018-04-17T01:00:50.867Z,21.77
2018-04-17T01:01:23.688Z,21.77
2018-04-17T01:01:55.793Z,21.76
2018-04-17T01:02:28.070Z,21.78
2018-04-17T01:03:00.121Z,21.78
2018-04-17T01:03:32.197Z,21.78
2018-04-17T01:04:04.266Z,21.80
2018-04-17T01:04:36.343Z,21.78
2018-04-17T01:05:09.182Z,21.79
2018-04-17T01:05:41.242Z,21.79
2018-04-17T01:06:13.336Z,21.79
2018-04-17T01:06:45.422Z,21.79
2018-04-17T01:07:17.467Z,21.78
2018-04-17T01:07:49.539Z,21.79
2018-04-17T01:08:21.594Z,21.79
2018-04-17T01:08:53.655Z,21.77
2018-04-17T01:09:25.736Z,21.78
2018-04-17T01:09:58.545Z,21.79
2018-04-17T01:10:30.606Z,21.77
2018-04-17T01:11:02.675Z,21.78
2018-04-17T01:11:34.729Z,21.78
2018-04-17T01:12:06.794Z,21.78
2018-04-17T01:12:39.620Z,21.78
2018-04-17T01:13:11.688Z,21.76
2018-04-17T01:13:43.751Z,21.77
2018-04-17T01:14:15.802Z,21.78
2018-04-17T01:14:47.941Z,21.78
2018-04-17T01:15:20.007Z,21.79
2018-04-17T01:15:52.076Z,21.79
2018-04-17T01:16:24.895Z,21.78
2018-04-17T01:16:56.958Z,21.78
2018-04-17T01:17:29.022Z,21.77
2018-04-17T01:18:01.104Z,21.77
2018-04-17T01:18:33.945Z,21.77
2018-04-17T01:19:06.051Z,21.76
2018-04-17T01:19:38.126Z,21.77
2018-04-17T01:20:10.199Z,21.78
2018-04-17T01:20:42.269Z,21.79
2018-04-17T01:21:14.332Z,21.78
2018-04-17T01:21:46.437Z,21.78
2018-04-17T01:22:18.528Z,21.77
2018-04-17T01:22:50.580Z,21.77
2018-04-17T01:23:22.663Z,21.76
2018-04-17T01:23:54.784Z,21.77
2018-04-17T01:24:26.800Z,21.77
2018-04-17T01:24:58.860Z,21.78
2018-04-17T01:25:30.954Z,21.78
2018-04-17T01:26:03.795Z,21.78
2018-04-17T01:26:35.850Z,21.78
2018-04-17T01:27:07.906Z,21.77
2018-04-17T01:27:40.058Z,21.78
2018-04-17T01:28:12.110Z,21.79
2018-04-17T01:28:44.173Z,21.79
2018-04-17T01:29:16.262Z,21.77
2018-04-17T01:29:48.337Z,21.78
2018-04-17T01:30:20.403Z,21.77
2018-04-17T01:30:52.469Z,21.77
2018-04-17T01:31:24.540Z,21.76
2018-04-17T01:31:56.610Z,21.78
2018-04-17T01:32:29.445Z,21.76
2018-04-17T01:33:01.547Z,21.76
2018-04-17T01:33:33.591Z,21.75
2018-04-17T01:34:05.670Z,21.75
2018-04-17T01:34:37.754Z,21.75
2018-04-17T01:35:09.807Z,21.75
2018-04-17T01:35:41.912Z,21.74
2018-04-17T01:36:14.005Z,21.74
2018-04-17T01:36:46.061Z,21.74
2018-04-17T01:37:18.129Z,21.74
2018-04-17T01:37:50.197Z,21.75
2018-04-17T01:38:23.014Z,21.75
2018-04-17T01:38:55.098Z,21.76
2018-04-17T01:39:27.203Z,21.76
2018-04-17T01:39:59.388Z,21.77
2018-04-17T01:40:31.432Z,21.75
2018-04-17T01:41:03.499Z,21.76
2018-04-17T01:41:35.566Z,21.76
2018-04-17T01:42:08.421Z,21.77
2018-04-17T01:42:40.477Z,21.76
2018-04-17T01:43:12.547Z,21.75
2018-04-17T01:43:45.373Z,21.76
2018-04-17T01:44:17.461Z,21.76
2018-04-17T01:44:50.289Z,21.75
2018-04-17T01:45:22.354Z,21.75
2018-04-17T01:45:54.414Z,21.75
2018-04-17T01:46:26.487Z,21.75
2018-04-17T01:46:58.547Z,21.75
2018-04-17T01:47:31.387Z,21.77
2018-04-17T01:48:03.458Z,21.76
2018-04-17T01:48:35.537Z,21.75
2018-04-17T01:49:07.671Z,21.76
2018-04-17T01:49:39.726Z,21.76
2018-04-17T01:50:12.571Z,21.75
2018-04-17T01:50:44.631Z,21.74
2018-04-17T01:51:16.694Z,21.74
2018-04-17T01:51:48.758Z,21.75
2018-04-17T01:52:21.589Z,21.75
2018-04-17T01:52:53.641Z,21.75
2018-04-17T01:53:25.709Z,21.74
2018-04-17T01:53:57.802Z,21.74
2018-04-17T01:54:29.863Z,21.76
2018-04-17T01:55:01.920Z,21.74
2018-04-17T01:55:33.989Z,21.74
2018-04-17T01:56:06.058Z,21.73
2018-04-17T01:56:38.151Z,21.73
2018-04-17T01:57:10.978Z,21.73
2018-04-17T01:57:43.034Z,21.73
2018-04-17T01:58:15.101Z,21.74
2018-04-17T01:58:47.168Z,21.74
2018-04-17T01:59:19.977Z,21.74
2018-04-17T01:59:52.040Z,21.73
2018-04-17T02:00:24.115Z,21.74
2018-04-17T02:00:56.189Z,21.74
2018-04-17T02:01:29.017Z,21.73
2018-04-17T02:02:01.091Z,21.73
2018-04-17T02:02:33.149Z,21.73
2018-04-17T02:03:05.217Z,21.73
2018-04-17T02:03:38.046Z,21.74
2018-04-17T02:04:10.102Z,21.75
2018-04-17T02:04:42.186Z,21.74
2018-04-17T02:05:15.011Z,21.73
2018-04-17T02:05:47.069Z,21.73
2018-04-17T02:06:19.168Z,21.72
2018-04-17T02:06:52.001Z,21.72
2018-04-17T02:07:24.065Z,21.71
2018-04-17T02:07:56.125Z,21.71
2018-04-17T02:08:28.967Z,21.71
2018-04-17T02:09:01.049Z,21.73
2018-04-17T02:09:33.109Z,21.73
2018-04-17T02:10:05.965Z,21.73
2018-04-17T02:10:38.048Z,21.75
2018-04-17T02:11:10.906Z,21.74
2018-04-17T02:11:43.770Z,21.73
2018-04-17T02:12:16.604Z,21.73
2018-04-17T02:12:48.684Z,21.72
2018-04-17T02:13:20.739Z,21.72
2018-04-17T02:13:52.798Z,21.74
2018-04-17T02:14:25.639Z,21.72
2018-04-17T02:14:57.698Z,21.74
2018-04-17T02:15:29.848Z,21.73
2018-04-17T02:16:01.920Z,21.72
2018-04-17T02:16:34.756Z,21.71
2018-04-17T02:17:06.811Z,21.72
2018-04-17T02:17:38.882Z,21.72
2018-04-17T02:18:10.957Z,21.72
2018-04-17T02:18:43.798Z,21.72
2018-04-17T02:19:15.951Z,21.74
2018-04-17T02:19:48.017Z,21.73
2018-04-17T02:20:20.078Z,21.73
2018-04-17T02:20:52.917Z,21.71
2018-04-17T02:21:25.079Z,21.72
2018-04-17T02:21:57.127Z,21.72
2018-04-17T02:22:29.179Z,21.72
2018-04-17T02:23:01.250Z,21.71
2018-04-17T02:23:33.325Z,21.72
2018-04-17T02:24:06.159Z,21.72
2018-04-17T02:24:38.247Z,21.74
2018-04-17T02:25:11.080Z,21.72
2018-04-17T02:25:43.144Z,21.73
2018-04-17T02:26:15.199Z,21.74
2018-04-17T02:26:47.532Z,21.72
2018-04-17T02:27:19.599Z,21.73
2018-04-17T02:27:51.677Z,21.72
2018-04-17T02:28:24.498Z,21.71
2018-04-17T02:28:56.562Z,21.72
2018-04-17T02:29:28.646Z,21.72
2018-04-17T02:30:01.481Z,21.73
2018-04-17T02:30:33.547Z,21.71
2018-04-17T02:31:05.615Z,21.72
2018-04-17T02:31:38.439Z,21.71
2018-04-17T02:32:10.513Z,21.71
2018-04-17T02:32:42.596Z,21.71
2018-04-17T02:33:14.630Z,21.71
2018-04-17T02:33:47.484Z,21.70
2018-04-17T02:34:19.558Z,21.71
2018-04-17T02:34:51.631Z,21.73
2018-04-17T02:35:23.701Z,21.72
2018-04-17T02:35:55.794Z,21.71
2018-04-17T02:36:27.847Z,21.71
2018-04-17T02:36:59.957Z,21.72
2018-04-17T02:37:32.014Z,21.72
2018-04-17T02:38:04.079Z,21.72
2018-04-17T02:38:36.133Z,21.71
2018-04-17T02:39:08.203Z,21.72
2018-04-17T02:39:40.362Z,21.71
2018-04-17T02:40:12.413Z,21.71
2018-04-17T02:40:44.481Z,21.70
2018-04-17T02:41:16.620Z,21.70
2018-04-17T02:41:48.773Z,21.70
2018-04-17T02:42:20.837Z,21.70
2018-04-17T02:42:52.915Z,21.70
2018-04-17T02:43:25.731Z,21.71
2018-04-17T02:43:57.798Z,21.70
2018-04-17T02:44:29.855Z,21.71
2018-04-17T02:45:01.938Z,21.71
2018-04-17T02:45:34.747Z,21.70
2018-04-17T02:46:06.821Z,21.70
2018-04-17T02:46:38.911Z,21.71
2018-04-17T02:47:11.951Z,21.70
2018-04-17T02:47:44.026Z,21.70
2018-04-17T02:48:16.080Z,21.71
2018-04-17T02:48:48.922Z,21.71
2018-04-17T02:49:20.971Z,21.69
2018-04-17T02:49:53.035Z,21.70
2018-04-17T02:50:25.096Z,21.70
2018-04-17T02:50:57.923Z,21.70
2018-04-17T02:51:30.001Z,21.70
2018-04-17T02:52:02.054Z,21.71
2018-04-17T02:52:34.207Z,21.70
2018-04-17T02:53:06.260Z,21.69
2018-04-17T02:53:38.330Z,21.69
2018-04-17T02:54:10.398Z,21.70
2018-04-17T02:54:43.236Z,21.70
2018-04-17T02:55:15.285Z,21.71
2018-04-17T02:55:47.437Z,21.70
2018-04-17T02:56:19.478Z,21.70
2018-04-17T02:56:51.541Z,21.71
2018-04-17T02:57:23.622Z,21.70
2018-04-17T02:57:55.687Z,21.70
2018-04-17T02:58:28.495Z,21.71
2018-04-17T02:59:00.554Z,21.69
2018-04-17T02:59:32.671Z,21.70
2018-04-17T03:00:05.488Z,21.70
2018-04-17T03:00:37.548Z,21.70
2018-04-17T03:01:09.619Z,21.69
2018-04-17T03:01:42.450Z,21.69
2018-04-17T03:02:14.522Z,21.69
2018-04-17T03:02:46.602Z,21.70
2018-04-17T03:03:19.427Z,21.69
2018-04-17T03:03:51.513Z,21.69
2018-04-17T03:04:24.372Z,21.70
2018-04-17T03:04:56.462Z,21.69
2018-04-17T03:05:28.519Z,21.70
2018-04-17T03:06:00.584Z,21.68
2018-04-17T03:06:32.683Z,21.68
2018-04-17T03:07:04.760Z,21.68
2018-04-17T03:07:37.593Z,21.68
2018-04-17T03:08:09.651Z,21.69
2018-04-17T03:08:41.718Z,21.69
2018-04-17T03:09:14.555Z,21.70
2018-04-17T03:09:46.614Z,21.71
2018-04-17T03:10:18.667Z,21.70
2018-04-17T03:10:50.723Z,21.69
2018-04-17T03:11:22.814Z,21.69
2018-04-17T03:11:55.662Z,21.68
2018-04-17T03:12:27.724Z,21.70
2018-04-17T03:13:00.555Z,21.69
2018-04-17T03:13:32.615Z,21.69
2018-04-17T03:14:04.666Z,21.69
2018-04-17T03:14:36.742Z,21.69
2018-04-17T03:15:09.590Z,21.70
2018-04-17T03:15:41.676Z,21.70
2018-04-17T03:16:14.499Z,21.69
2018-04-17T03:16:46.554Z,21.69
2018-04-17T03:17:18.643Z,21.68
2018-04-17T03:17:51.466Z,21.67
2018-04-17T03:18:23.543Z,21.67
2018-04-17T03:18:55.624Z,21.67
2018-04-17T03:19:28.453Z,21.67
2018-04-17T03:20:00.503Z,21.68
2018-04-17T03:20:32.560Z,21.67
2018-04-17T03:21:04.644Z,21.67
2018-04-17T03:21:37.490Z,21.67
2018-04-17T03:22:09.550Z,21.68
2018-04-17T03:22:41.613Z,21.67
2018-04-17T03:23:13.683Z,21.67
2018-04-17T03:23:45.799Z,21.67
2018-04-17T03:24:17.850Z,21.67
2018-04-17T03:24:49.941Z,21.66
2018-04-17T03:25:22.024Z,21.66
2018-04-17T03:25:54.127Z,21.67
2018-04-17T03:26:26.206Z,21.67
2018-04-17T03:26:58.272Z,21.67
2018-04-17T03:27:30.326Z,21.69
2018-04-17T03:28:02.453Z,21.69
2018-04-17T03:28:35.287Z,21.68
2018-04-17T03:29:07.376Z,21.67
2018-04-17T03:29:40.191Z,21.67
2018-04-17T03:30:12.271Z,21.67
2018-04-17T03:30:44.325Z,21.67
2018-04-17T03:31:16.410Z,21.67
2018-04-17T03:31:48.494Z,21.67
2018-04-17T03:32:20.547Z,21.66
2018-04-17T03:32:52.613Z,21.66
2018-04-17T03:33:24.678Z,21.66
2018-04-17T03:33:56.733Z,21.67
2018-04-17T03:34:28.795Z,21.65
2018-04-17T03:35:01.614Z,21.67
2018-04-17T03:35:33.692Z,21.66
2018-04-17T03:36:05.828Z,21.66
2018-04-17T03:36:37.855Z,21.64
2018-04-17T03:37:09.914Z,21.66
2018-04-17T03:37:41.976Z,21.66
2018-04-17T03:38:14.035Z,21.65
2018-04-17T03:38:46.137Z,21.67
2018-04-17T03:39:18.962Z,21.67
2018-04-17T03:39:51.010Z,21.67
2018-04-17T03:40:23.095Z,21.67
2018-04-17T03:40:55.184Z,21.68
2018-04-17T03:41:27.231Z,21.67
2018-04-17T03:41:59.324Z,21.67
2018-04-17T03:42:31.382Z,21.67
2018-04-17T03:43:03.443Z,21.67
2018-04-17T03:43:35.498Z,21.67
2018-04-17T03:44:07.561Z,21.67
2018-04-17T03:44:39.634Z,21.67
2018-04-17T03:45:12.456Z,21.67
2018-04-17T03:45:44.523Z,21.67
2018-04-17T03:46:16.616Z,21.64
2018-04-17T03:46:48.679Z,21.66
2018-04-17T03:47:20.735Z,21.66
2018-04-17T03:47:52.804Z,21.67
2018-04-17T03:48:24.867Z,21.68
2018-04-17T03:48:56.931Z,21.68
2018-04-17T03:49:29.203Z,21.67
2018-04-17T03:50:01.293Z,21.68
2018-04-17T03:50:33.364Z,21.69
2018-04-17T03:51:05.440Z,21.67
2018-04-17T03:51:37.521Z,21.67
2018-04-17T03:52:10.358Z,21.67
2018-04-17T03:52:42.424Z,21.67
2018-04-17T03:53:14.503Z,21.67
2018-04-17T03:53:47.324Z,21.67
2018-04-17T03:54:19.379Z,21.68
2018-04-17T03:54:51.454Z,21.67
2018-04-17T03:55:23.515Z,21.67
2018-04-17T03:55:56.330Z,21.67
2018-04-17T03:56:28.387Z,21.67
2018-04-17T03:57:00.463Z,21.67
2018-04-17T03:57:32.527Z,21.67
2018-04-17T03:58:04.583Z,21.66
2018-04-17T03:58:36.696Z,21.67
2018-04-17T03:59:08.766Z,21.66
2018-04-17T03:59:40.859Z,21.67
2018-04-17T04:00:13.704Z,21.66
2018-04-17T04:00:45.771Z,21.65
2018-04-17T04:01:18.612Z,21.65
2018-04-17T04:01:50.694Z,21.65
2018-04-17T04:02:22.743Z,21.67
2018-04-17T04:02:55.572Z,21.67
2018-04-17T04:03:27.635Z,21.67
2018-04-17T04:03:59.797Z,21.67
2018-04-17T04:04:31.860Z,21.68
2018-04-17T04:05:03.903Z,21.69
2018-04-17T04:05:35.980Z,21.68
2018-04-17T04:06:08.805Z,21.68
2018-04-17T04:06:40.864Z,21.68
2018-04-17T04:07:12.934Z,21.69
2018-04-17T04:07:45.023Z,21.68
2018-04-17T04:08:17.858Z,21.68
2018-04-17T04:08:49.927Z,21.68
2018-04-17T04:09:22.756Z,21.68
2018-04-17T04:09:54.858Z,21.67
2018-04-17T04:10:27.695Z,21.70
2018-04-17T04:10:59.771Z,21.70
2018-04-17T04:11:31.821Z,21.70
2018-04-17T04:12:04.678Z,21.70
2018-04-17T04:12:36.723Z,21.70
2018-04-17T04:13:08.796Z,21.69
2018-04-17T04:13:41.627Z,21.69
2018-04-17T04:14:13.692Z,21.68
2018-04-17T04:14:45.754Z,21.68
2018-04-17T04:15:17.868Z,21.69
2018-04-17T04:15:49.928Z,21.68
2018-04-17T04:16:21.995Z,21.68
2018-04-17T04:16:54.068Z,21.68
2018-04-17T04:17:26.136Z,21.68
2018-04-17T04:17:58.977Z,21.71
2018-04-17T04:18:31.020Z,21.75
2018-04-17T04:19:03.082Z,21.76
2018-04-17T04:19:35.151Z,21.75
2018-04-17T04:20:07.973Z,21.74
2018-04-17T04:20:40.024Z,21.70
2018-04-17T04:21:12.122Z,21.66
2018-04-17T04:21:44.184Z,21.64
2018-04-17T04:22:17.005Z,21.63
2018-04-17T04:22:49.082Z,21.62
2018-04-17T04:23:21.147Z,21.58
2018-04-17T04:23:53.984Z,21.56
2018-04-17T04:24:26.059Z,21.56
2018-04-17T04:24:58.121Z,21.56
2018-04-17T04:25:30.178Z,21.53
2018-04-17T04:26:03.021Z,21.52
2018-04-17T04:26:35.093Z,21.51
2018-04-17T04:27:07.154Z,21.51
2018-04-17T04:27:40.002Z,21.51
2018-04-17T04:28:12.068Z,21.52
2018-04-17T04:28:44.111Z,21.50
2018-04-17T04:29:16.199Z,21.50
2018-04-17T04:29:49.022Z,21.50
2018-04-17T04:30:21.084Z,21.48
2018-04-17T04:30:53.176Z,21.48
2018-04-17T04:31:26.003Z,21.50
2018-04-17T04:31:58.070Z,21.48
2018-04-17T04:32:30.140Z,21.49
2018-04-17T04:33:02.982Z,21.49
2018-04-17T04:33:35.054Z,21.52
2018-04-17T04:34:07.885Z,21.55
2018-04-17T04:34:39.948Z,21.57
2018-04-17T04:35:12.003Z,21.59
2018-04-17T04:35:44.110Z,21.59
2018-04-17T04:36:16.190Z,21.61
2018-04-17T04:36:48.247Z,21.63
2018-04-17T04:37:20.322Z,21.64
2018-04-17T04:37:52.374Z,21.64
2018-04-17T04:38:24.446Z,21.62
2018-04-17T04:38:57.261Z,21.61
2018-04-17T04:39:29.345Z,21.62
2018-04-17T04:40:01.420Z,21.61
2018-04-17T04:40:34.355Z,21.63
2018-04-17T04:41:06.410Z,21.68
2018-04-17T04:41:38.469Z,21.71
2018-04-17T04:42:10.537Z,21.69
2018-04-17T04:42:43.363Z,21.68
2018-04-17T04:43:15.537Z,21.67
2018-04-17T04:43:47.594Z,21.66
2018-04-17T04:44:19.654Z,21.68
2018-04-17T04:44:52.495Z,21.68
2018-04-17T04:45:24.572Z,21.67
2018-04-17T04:45:56.657Z,21.68
2018-04-17T04:46:28.731Z,21.66
2018-04-17T04:47:00.791Z,21.64
2018-04-17T04:47:32.845Z,21.64
2018-04-17T04:48:04.896Z,21.64
2018-04-17T04:48:36.953Z,21.66
2018-04-17T04:49:09.128Z,21.65
2018-04-17T04:49:41.185Z,21.63
2018-04-17T04:50:13.237Z,21.63
2018-04-17T04:50:45.328Z,21.63
2018-04-17T04:51:17.391Z,21.62
2018-04-17T04:51:49.457Z,21.64
2018-04-17T04:52:21.526Z,21.62
2018-04-17T04:52:53.603Z,21.61
2018-04-17T04:53:25.663Z,21.62
2018-04-17T04:53:57.719Z,21.62
2018-04-17T04:54:30.538Z,21.61
2018-04-17T04:55:02.655Z,21.59
2018-04-17T04:55:35.486Z,21.58
2018-04-17T04:56:07.562Z,21.59
2018-04-17T04:56:40.398Z,21.59
2018-04-17T04:57:12.469Z,21.59
2018-04-17T04:57:44.547Z,21.60
2018-04-17T04:58:16.585Z,21.58
2018-04-17T04:59:21.995Z,21.59
2018-04-17T04:59:54.158Z,21.58
2018-04-17T05:00:26.193Z,21.58
2018-04-17T05:00:58.262Z,21.59
2018-04-17T05:01:30.319Z,21.59
2018-04-17T05:02:02.380Z,21.57
2018-04-17T05:02:35.211Z,21.58
2018-04-17T05:03:07.282Z,21.58
2018-04-17T05:03:39.346Z,21.60
2018-04-17T05:04:11.424Z,21.60
2018-04-17T05:04:44.295Z,21.60
2018-04-17T05:05:16.360Z,21.59
2018-04-17T05:05:48.436Z,21.59
2018-04-17T05:06:20.510Z,21.61
2018-04-17T05:06:52.575Z,21.60
2018-04-17T05:07:24.641Z,21.60
2018-04-17T05:07:57.495Z,21.60
2018-04-17T05:08:29.566Z,21.59
2018-04-17T05:09:02.400Z,21.59
2018-04-17T05:09:34.466Z,21.57
2018-04-17T05:10:06.531Z,21.58
2018-04-17T05:10:38.588Z,21.58
2018-04-17T05:11:11.428Z,21.58
2018-04-17T05:11:43.488Z,21.57
2018-04-17T05:12:15.548Z,21.57
2018-04-17T05:12:47.636Z,21.58
2018-04-17T05:13:19.687Z,21.58
2018-04-17T05:13:51.800Z,21.57
2018-04-17T05:14:23.877Z,21.57
2018-04-17T05:14:56.704Z,21.58
2018-04-17T05:15:28.767Z,21.57
2018-04-17T05:16:00.852Z,21.57
2018-04-17T05:16:32.881Z,21.57
2018-04-17T05:17:04.943Z,21.59
2018-04-17T05:17:37.001Z,21.58
2018-04-17T05:18:09.836Z,21.59
2018-04-17T05:18:41.897Z,21.60
2018-04-17T05:19:13.963Z,21.58
2018-04-17T05:19:46.030Z,21.59
2018-04-17T05:20:18.858Z,21.59
2018-04-17T05:20:50.927Z,21.59
2018-04-17T05:21:22.996Z,21.61
2018-04-17T05:21:55.091Z,21.61
2018-04-17T05:22:27.154Z,21.58
2018-04-17T05:22:59.211Z,21.60
2018-04-17T05:23:31.299Z,21.60
2018-04-17T05:24:03.351Z,21.60
2018-04-17T05:24:35.426Z,21.59
2018-04-17T05:25:08.253Z,21.57
2018-04-17T05:25:40.309Z,21.57
2018-04-17T05:26:12.364Z,21.57
2018-04-17T05:26:44.516Z,21.59
2018-04-17T05:27:16.571Z,21.60
2018-04-17T05:27:48.622Z,21.60
2018-04-17T05:28:20.686Z,21.59
2018-04-17T05:28:52.766Z,21.59
2018-04-17T05:29:24.954Z,21.60
2018-04-17T05:29:57.135Z,21.59
2018-04-17T05:30:29.205Z,21.58
2018-04-17T05:31:02.041Z,21.57
2018-04-17T05:31:34.123Z,21.54
2018-04-17T05:32:06.202Z,21.53
2018-04-17T05:32:38.279Z,21.53
2018-04-17T05:33:10.362Z,21.54
2018-04-17T05:33:42.434Z,21.53
2018-04-17T05:34:15.318Z,21.53
2018-04-17T05:34:47.330Z,21.55
2018-04-17T05:35:19.403Z,21.54
2018-04-17T05:35:51.489Z,21.55
2018-04-17T05:36:24.327Z,21.56
2018-04-17T05:36:56.385Z,21.54
2018-04-17T05:37:29.239Z,21.53
2018-04-17T05:38:01.316Z,21.53
2018-04-17T05:38:34.142Z,21.53
2018-04-17T05:39:06.231Z,21.55
2018-04-17T05:39:39.062Z,21.56
2018-04-17T05:40:11.184Z,21.55
2018-04-17T05:40:43.191Z,21.54
2018-04-17T05:41:15.258Z,21.54
2018-04-17T05:41:48.318Z,21.53
2018-04-17T05:42:20.377Z,21.56
2018-04-17T05:42:52.426Z,21.56
2018-04-17T05:43:25.267Z,21.56
2018-04-17T05:43:57.314Z,21.57
2018-04-17T05:44:29.387Z,21.58
2018-04-17T05:45:01.468Z,21.57
2018-04-17T05:45:34.299Z,21.56
2018-04-17T05:46:06.462Z,21.57
2018-04-17T05:46:38.509Z,21.56
2018-04-17T05:47:10.517Z,21.57
2018-04-17T05:47:42.594Z,21.57
2018-04-17T05:48:14.635Z,21.58
2018-04-17T05:48:46.660Z,21.58
2018-04-17T05:49:18.683Z,21.58
2018-04-17T05:49:51.498Z,21.58
2018-04-17T05:50:23.572Z,21.59
2018-04-17T05:50:55.619Z,21.61
2018-04-17T05:51:27.632Z,21.60
2018-04-17T05:51:59.677Z,21.59
2018-04-17T05:52:31.775Z,21.58
2018-04-17T05:53:03.783Z,21.58
2018-04-17T05:53:35.809Z,21.57
2018-04-17T05:54:08.591Z,21.59
2018-04-17T05:54:40.617Z,21.59
2018-04-17T05:55:12.637Z,21.57
2018-04-17T05:55:44.722Z,21.58
2018-04-17T05:56:16.716Z,21.57
2018-04-17T05:56:48.722Z,21.58
2018-04-17T05:57:20.743Z,21.58
2018-04-17T05:57:52.772Z,21.58
2018-04-17T05:58:24.778Z,21.58
2018-04-17T05:58:57.608Z,21.57
2018-04-17T05:59:29.639Z,21.57
2018-04-17T06:00:01.679Z,21.58
2018-04-17T06:00:33.708Z,21.58
2018-04-17T06:01:06.495Z,21.59
2018-04-17T06:01:38.529Z,21.59
2018-04-17T06:02:10.561Z,21.59
2018-04-17T06:02:42.587Z,21.61
2018-04-17T06:03:14.608Z,21.60
2018-04-17T06:03:46.652Z,21.61
2018-04-17T06:04:18.671Z,21.60
2018-04-17T06:04:50.708Z,21.59
2018-04-17T06:05:22.735Z,21.59
2018-04-17T06:05:54.768Z,21.59
2018-04-17T06:06:26.801Z,21.60
2018-04-17T06:06:59.616Z,21.61
2018-04-17T06:07:31.635Z,21.60
2018-04-17T06:08:03.667Z,21.60
2018-04-17T06:08:36.459Z,21.60
2018-04-17T06:09:08.483Z,21.59
2018-04-17T06:09:41.299Z,21.61
2018-04-17T06:10:13.319Z,21.61
2018-04-17T06:10:45.355Z,21.60
2018-04-17T06:11:18.158Z,21.59
2018-04-17T06:11:50.175Z,21.61
2018-04-17T06:12:22.975Z,21.60
2018-04-17T06:12:54.998Z,21.59
2018-04-17T06:13:27.783Z,21.60
2018-04-17T06:13:59.814Z,21.60
2018-04-17T06:14:32.611Z,21.60
2018-04-17T06:15:04.633Z,21.60
2018-04-17T06:15:36.643Z,21.60
2018-04-17T06:16:08.687Z,21.61
2018-04-17T06:16:40.698Z,21.60
2018-04-17T06:17:12.721Z,21.62
2018-04-17T06:17:44.758Z,21.62
2018-04-17T06:18:16.782Z,21.64
2018-04-17T06:18:48.818Z,21.65
2018-04-17T06:19:20.847Z,21.66
2018-04-17T06:19:52.904Z,21.65
2018-04-17T06:20:24.952Z,21.66
2018-04-17T06:20:57.076Z,21.66
2018-04-17T06:21:29.060Z,21.64
2018-04-17T06:22:01.086Z,21.64
2018-04-17T06:22:33.107Z,21.64
2018-04-17T06:23:05.128Z,21.65
2018-04-17T06:23:37.152Z,21.66
2018-04-17T06:24:09.940Z,21.65
2018-04-17T06:24:41.970Z,21.65
2018-04-17T06:25:14.759Z,21.64
2018-04-17T06:25:46.800Z,21.65
2018-04-17T06:26:19.601Z,21.67
2018-04-17T06:26:51.624Z,21.66
2018-04-17T06:27:23.646Z,21.67
2018-04-17T06:27:55.681Z,21.65
2018-04-17T06:28:27.718Z,21.65
2018-04-17T06:28:59.734Z,21.67
2018-04-17T06:29:31.767Z,21.66
2018-04-17T06:30:04.560Z,21.67
2018-04-17T06:30:36.567Z,21.66
2018-04-17T06:31:08.596Z,21.65
2018-04-17T06:31:40.620Z,21.66
2018-04-17T06:32:12.651Z,21.67
2018-04-17T06:32:44.680Z,21.68
2018-04-17T06:33:16.747Z,21.69
2018-04-17T06:33:49.559Z,21.69
2018-04-17T06:34:21.598Z,21.68
2018-04-17T06:34:53.655Z,21.68
2018-04-17T06:35:25.685Z,21.68
2018-04-17T06:35:57.750Z,21.68
2018-04-17T06:36:29.780Z,21.70
2018-04-17T06:37:02.584Z,21.68
2018-04-17T06:37:34.604Z,21.68
2018-04-17T06:38:06.628Z,21.69
2018-04-17T06:38:38.656Z,21.70
2018-04-17T06:39:10.679Z,21.68
2018-04-17T06:39:42.703Z,21.69
2018-04-17T06:40:15.475Z,21.70
2018-04-17T06:40:47.504Z,21.69
2018-04-17T06:41:20.290Z,21.69
2018-04-17T06:41:52.478Z,21.70
2018-04-17T06:42:24.420Z,21.69
2018-04-17T06:42:56.444Z,21.70
2018-04-17T06:43:29.244Z,21.69
2018-04-17T06:44:01.267Z,21.69
2018-04-17T06:44:33.287Z,21.71
2018-04-17T06:45:05.337Z,21.70
2018-04-17T06:45:37.377Z,21.69
2018-04-17T06:46:09.398Z,21.70
2018-04-17T06:46:41.425Z,21.69
2018-04-17T06:47:13.498Z,21.69
2018-04-17T06:47:45.658Z,21.70
2018-04-17T06:48:17.628Z,21.70
2018-04-17T06:48:49.662Z,21.70
2018-04-17T06:49:21.703Z,21.71
2018-04-17T06:49:53.727Z,21.72
2018-04-17T06:50:26.521Z,21.72
2018-04-17T06:50:58.547Z,21.73
2018-04-17T06:51:31.336Z,21.72
2018-04-17T06:52:03.387Z,21.74
2018-04-17T06:52:35.431Z,21.74
2018-04-17T06:53:07.427Z,21.74
2018-04-17T06:53:39.455Z,21.74
2018-04-17T06:54:11.501Z,21.74
2018-04-17T06:54:43.523Z,21.74
2018-04-17T06:55:16.307Z,21.74